sensor_id;sensor_type;location;lat;lon;timestamp;P1;durP1;ratioP1;P2;durP2;ratioP2
48161;SDS011;33950;48.154;16.316;2022-09-21T00:01:05;4.78;;;1.30;;
48161;SDS011;33950;48.154;16.316;2022-09-21T00:03:53;3.47;;;1.70;;
48161;SDS011;33950;48.154;16.316;2022-09-21T00:06:44;5.82;;;1.50;;
48161;SDS011;33950;48.154;16.316;2022-09-21T00:09:31;5.88;;;1.67;;
48161;SDS011;33950;48.154;16.316;2022-09-21T00:12:22;2.15;;;1.23;;
48161;SDS011;33950;48.154;16.316;2022-09-21T00:15:09;3.42;;;1.13;;
48161;SDS011;33950;48.154;16.316;2022-09-21T00:17:56;3.03;;;1.60;;
48161;SDS011;33950;48.154;16.316;2022-09-21T00:20:43;1.58;;;1.30;;
48161;SDS011;33950;48.154;16.316;2022-09-21T00:23:30;2.75;;;1.30;;
48161;SDS011;33950;48.154;16.316;2022-09-21T00:26:17;3.60;;;1.52;;
48161;SDS011;33950;48.154;16.316;2022-09-21T00:29:06;1.55;;;1.27;;
48161;SDS011;33950;48.154;16.316;2022-09-21T00:31:52;2.42;;;1.35;;
48161;SDS011;33950;48.154;16.316;2022-09-21T00:34:38;2.40;;;1.13;;
48161;SDS011;33950;48.154;16.316;2022-09-21T00:37:24;2.85;;;1.65;;
48161;SDS011;33950;48.154;16.316;2022-09-21T00:40:11;11.13;;;1.50;;
48161;SDS011;33950;48.154;16.316;2022-09-21T00:43:09;2.25;;;1.50;;
48161;SDS011;33950;48.154;16.316;2022-09-21T00:46:00;3.17;;;1.60;;
48161;SDS011;33950;48.154;16.316;2022-09-21T00:48:49;4.72;;;1.30;;
48161;SDS011;33950;48.154;16.316;2022-09-21T00:51:36;4.25;;;1.63;;
48161;SDS011;33950;48.154;16.316;2022-09-21T00:54:23;2.88;;;1.70;;
48161;SDS011;33950;48.154;16.316;2022-09-21T00:57:14;5.85;;;1.48;;
48161;SDS011;33950;48.154;16.316;2022-09-21T01:00:03;8.00;;;2.70;;
48161;SDS011;33950;48.154;16.316;2022-09-21T01:02:54;9.52;;;1.48;;
48161;SDS011;33950;48.154;16.316;2022-09-21T01:05:45;3.35;;;1.70;;
48161;SDS011;33950;48.154;16.316;2022-09-21T01:08:31;6.32;;;1.80;;
48161;SDS011;33950;48.154;16.316;2022-09-21T01:11:22;4.78;;;1.55;;
48161;SDS011;33950;48.154;16.316;2022-09-21T01:14:24;6.82;;;1.40;;
48161;SDS011;33950;48.154;16.316;2022-09-21T01:17:27;3.00;;;1.60;;
48161;SDS011;33950;48.154;16.316;2022-09-21T01:20:28;5.10;;;1.65;;
48161;SDS011;33950;48.154;16.316;2022-09-21T01:23:55;6.63;;;1.60;;
48161;SDS011;33950;48.154;16.316;2022-09-21T01:30:21;5.28;;;1.60;;
48161;SDS011;33950;48.154;16.316;2022-09-21T01:33:10;2.95;;;1.33;;
48161;SDS011;33950;48.154;16.316;2022-09-21T01:36:00;3.35;;;1.67;;
48161;SDS011;33950;48.154;16.316;2022-09-21T01:38:52;2.65;;;1.48;;
48161;SDS011;33950;48.154;16.316;2022-09-21T01:41:40;2.10;;;1.70;;
48161;SDS011;33950;48.154;16.316;2022-09-21T01:44:28;1.73;;;1.35;;
48161;SDS011;33950;48.154;16.316;2022-09-21T01:47:19;2.88;;;1.48;;
48161;SDS011;33950;48.154;16.316;2022-09-21T01:50:07;6.55;;;1.50;;
48161;SDS011;33950;48.154;16.316;2022-09-21T01:52:57;3.67;;;1.40;;
48161;SDS011;33950;48.154;16.316;2022-09-21T01:55:48;1.90;;;1.48;;
48161;SDS011;33950;48.154;16.316;2022-09-21T01:58:38;3.47;;;1.58;;
48161;SDS011;33950;48.154;16.316;2022-09-21T02:01:27;4.72;;;1.67;;
48161;SDS011;33950;48.154;16.316;2022-09-21T02:04:17;4.07;;;1.20;;
48161;SDS011;33950;48.154;16.316;2022-09-21T02:07:04;4.22;;;1.48;;
48161;SDS011;33950;48.154;16.316;2022-09-21T02:09:51;3.42;;;1.67;;
48161;SDS011;33950;48.154;16.316;2022-09-21T02:12:40;7.60;;;1.80;;
48161;SDS011;33950;48.154;16.316;2022-09-21T02:15:28;4.32;;;1.70;;
48161;SDS011;33950;48.154;16.316;2022-09-21T02:18:26;4.47;;;1.88;;
48161;SDS011;33950;48.154;16.316;2022-09-21T02:21:28;3.72;;;1.70;;
48161;SDS011;33950;48.154;16.316;2022-09-21T02:24:21;2.30;;;1.52;;
48161;SDS011;33950;48.154;16.316;2022-09-21T02:27:17;2.53;;;1.50;;
48161;SDS011;33950;48.154;16.316;2022-09-21T02:30:12;1.95;;;1.35;;
48161;SDS011;33950;48.154;16.316;2022-09-21T02:33:03;2.60;;;1.40;;
48161;SDS011;33950;48.154;16.316;2022-09-21T02:35:57;2.67;;;1.63;;
48161;SDS011;33950;48.154;16.316;2022-09-21T02:38:52;2.40;;;1.67;;
48161;SDS011;33950;48.154;16.316;2022-09-21T02:41:42;2.67;;;1.20;;
48161;SDS011;33950;48.154;16.316;2022-09-21T02:44:37;1.73;;;1.48;;
48161;SDS011;33950;48.154;16.316;2022-09-21T02:47:28;4.93;;;1.60;;
48161;SDS011;33950;48.154;16.316;2022-09-21T02:50:18;3.33;;;1.50;;
48161;SDS011;33950;48.154;16.316;2022-09-21T02:53:06;2.65;;;1.40;;
48161;SDS011;33950;48.154;16.316;2022-09-21T02:55:57;5.45;;;1.60;;
48161;SDS011;33950;48.154;16.316;2022-09-21T02:58:49;1.60;;;1.40;;
48161;SDS011;33950;48.154;16.316;2022-09-21T03:01:39;7.68;;;1.48;;
48161;SDS011;33950;48.154;16.316;2022-09-21T03:04:26;3.35;;;1.90;;
48161;SDS011;33950;48.154;16.316;2022-09-21T03:07:12;2.35;;;1.55;;
48161;SDS011;33950;48.154;16.316;2022-09-21T03:09:59;3.17;;;1.67;;
48161;SDS011;33950;48.154;16.316;2022-09-21T03:12:47;2.40;;;1.55;;
48161;SDS011;33950;48.154;16.316;2022-09-21T03:15:33;4.78;;;1.75;;
48161;SDS011;33950;48.154;16.316;2022-09-21T03:18:20;6.10;;;1.80;;
48161;SDS011;33950;48.154;16.316;2022-09-21T03:21:06;3.65;;;1.40;;
48161;SDS011;33950;48.154;16.316;2022-09-21T03:23:52;3.92;;;1.52;;
48161;SDS011;33950;48.154;16.316;2022-09-21T03:26:38;3.20;;;1.83;;
48161;SDS011;33950;48.154;16.316;2022-09-21T03:29:25;2.78;;;1.40;;
48161;SDS011;33950;48.154;16.316;2022-09-21T03:32:12;6.60;;;2.40;;
48161;SDS011;33950;48.154;16.316;2022-09-21T03:34:58;4.40;;;1.98;;
48161;SDS011;33950;48.154;16.316;2022-09-21T03:37:45;3.30;;;1.70;;
48161;SDS011;33950;48.154;16.316;2022-09-21T03:40:31;3.67;;;1.80;;
48161;SDS011;33950;48.154;16.316;2022-09-21T03:43:17;4.50;;;1.98;;
48161;SDS011;33950;48.154;16.316;2022-09-21T03:46:05;4.50;;;1.90;;
48161;SDS011;33950;48.154;16.316;2022-09-21T03:48:51;3.42;;;2.00;;
48161;SDS011;33950;48.154;16.316;2022-09-21T03:51:38;3.92;;;2.22;;
48161;SDS011;33950;48.154;16.316;2022-09-21T03:54:24;2.42;;;2.10;;
48161;SDS011;33950;48.154;16.316;2022-09-21T03:57:10;7.45;;;2.15;;
48161;SDS011;33950;48.154;16.316;2022-09-21T03:59:57;4.47;;;2.13;;
48161;SDS011;33950;48.154;16.316;2022-09-21T04:02:44;5.57;;;2.45;;
48161;SDS011;33950;48.154;16.316;2022-09-21T04:05:30;3.78;;;2.40;;
48161;SDS011;33950;48.154;16.316;2022-09-21T04:08:16;3.25;;;2.17;;
48161;SDS011;33950;48.154;16.316;2022-09-21T04:11:07;3.85;;;2.72;;
48161;SDS011;33950;48.154;16.316;2022-09-21T04:13:54;3.23;;;2.40;;
48161;SDS011;33950;48.154;16.316;2022-09-21T04:16:43;4.45;;;2.88;;
48161;SDS011;33950;48.154;16.316;2022-09-21T04:19:31;4.10;;;2.75;;
48161;SDS011;33950;48.154;16.316;2022-09-21T04:22:17;5.00;;;3.15;;
48161;SDS011;33950;48.154;16.316;2022-09-21T04:25:03;5.50;;;3.30;;
48161;SDS011;33950;48.154;16.316;2022-09-21T04:27:50;5.13;;;3.08;;
48161;SDS011;33950;48.154;16.316;2022-09-21T04:30:36;5.75;;;3.45;;
48161;SDS011;33950;48.154;16.316;2022-09-21T04:33:22;4.97;;;3.50;;
48161;SDS011;33950;48.154;16.316;2022-09-21T04:36:10;6.75;;;3.63;;
48161;SDS011;33950;48.154;16.316;2022-09-21T04:38:56;4.75;;;3.08;;
48161;SDS011;33950;48.154;16.316;2022-09-21T04:41:43;6.55;;;3.45;;
48161;SDS011;33950;48.154;16.316;2022-09-21T04:44:29;9.43;;;3.65;;
48161;SDS011;33950;48.154;16.316;2022-09-21T04:47:15;6.55;;;3.38;;
48161;SDS011;33950;48.154;16.316;2022-09-21T04:50:02;5.55;;;3.53;;
48161;SDS011;33950;48.154;16.316;2022-09-21T04:52:50;5.00;;;3.55;;
48161;SDS011;33950;48.154;16.316;2022-09-21T04:55:36;5.28;;;3.40;;
48161;SDS011;33950;48.154;16.316;2022-09-21T04:58:22;4.50;;;3.55;;
48161;SDS011;33950;48.154;16.316;2022-09-21T05:01:08;6.05;;;3.85;;
48161;SDS011;33950;48.154;16.316;2022-09-21T05:03:54;4.43;;;3.42;;
48161;SDS011;33950;48.154;16.316;2022-09-21T05:06:46;5.53;;;3.40;;
48161;SDS011;33950;48.154;16.316;2022-09-21T05:09:33;8.45;;;3.80;;
48161;SDS011;33950;48.154;16.316;2022-09-21T05:12:37;7.72;;;3.78;;
48161;SDS011;33950;48.154;16.316;2022-09-21T05:15:23;7.45;;;3.97;;
48161;SDS011;33950;48.154;16.316;2022-09-21T05:18:10;7.97;;;4.20;;
48161;SDS011;33950;48.154;16.316;2022-09-21T05:20:56;17.02;;;3.95;;
48161;SDS011;33950;48.154;16.316;2022-09-21T05:23:43;9.98;;;3.92;;
48161;SDS011;33950;48.154;16.316;2022-09-21T05:26:30;10.15;;;4.05;;
48161;SDS011;33950;48.154;16.316;2022-09-21T05:29:17;16.17;;;3.92;;
48161;SDS011;33950;48.154;16.316;2022-09-21T05:32:04;23.30;;;3.72;;
48161;SDS011;33950;48.154;16.316;2022-09-21T05:35:00;14.00;;;4.10;;
48161;SDS011;33950;48.154;16.316;2022-09-21T05:37:54;7.07;;;3.42;;
48161;SDS011;33950;48.154;16.316;2022-09-21T05:43:33;8.18;;;3.13;;
48161;SDS011;33950;48.154;16.316;2022-09-21T05:46:23;5.15;;;3.30;;
48161;SDS011;33950;48.154;16.316;2022-09-21T05:49:21;8.45;;;3.60;;
48161;SDS011;33950;48.154;16.316;2022-09-21T05:52:13;5.50;;;3.40;;
48161;SDS011;33950;48.154;16.316;2022-09-21T05:55:06;3.92;;;3.15;;
48161;SDS011;33950;48.154;16.316;2022-09-21T05:58:05;12.90;;;3.28;;
48161;SDS011;33950;48.154;16.316;2022-09-21T06:01:01;7.35;;;3.42;;
48161;SDS011;33950;48.154;16.316;2022-09-21T06:03:56;7.57;;;3.75;;
48161;SDS011;33950;48.154;16.316;2022-09-21T06:06:43;3.92;;;2.95;;
48161;SDS011;33950;48.154;16.316;2022-09-21T06:09:29;15.57;;;4.18;;
48161;SDS011;33950;48.154;16.316;2022-09-21T06:12:16;5.32;;;3.70;;
48161;SDS011;33950;48.154;16.316;2022-09-21T06:15:02;4.28;;;3.13;;
48161;SDS011;33950;48.154;16.316;2022-09-21T06:17:50;4.82;;;3.03;;
48161;SDS011;33950;48.154;16.316;2022-09-21T06:20:36;5.72;;;3.42;;
48161;SDS011;33950;48.154;16.316;2022-09-21T06:23:22;7.13;;;4.05;;
48161;SDS011;33950;48.154;16.316;2022-09-21T06:26:08;6.22;;;3.10;;
48161;SDS011;33950;48.154;16.316;2022-09-21T06:28:54;5.88;;;3.50;;
48161;SDS011;33950;48.154;16.316;2022-09-21T06:31:40;7.00;;;4.25;;
48161;SDS011;33950;48.154;16.316;2022-09-21T06:34:28;7.35;;;3.72;;
48161;SDS011;33950;48.154;16.316;2022-09-21T06:37:14;15.30;;;3.50;;
48161;SDS011;33950;48.154;16.316;2022-09-21T06:40:00;10.15;;;4.03;;
48161;SDS011;33950;48.154;16.316;2022-09-21T06:42:47;10.07;;;3.28;;
48161;SDS011;33950;48.154;16.316;2022-09-21T06:45:33;6.65;;;3.50;;
48161;SDS011;33950;48.154;16.316;2022-09-21T06:48:19;5.43;;;3.55;;
48161;SDS011;33950;48.154;16.316;2022-09-21T06:51:08;7.53;;;3.40;;
48161;SDS011;33950;48.154;16.316;2022-09-21T06:53:54;8.43;;;4.35;;
48161;SDS011;33950;48.154;16.316;2022-09-21T06:56:41;8.18;;;3.72;;
48161;SDS011;33950;48.154;16.316;2022-09-21T06:59:28;9.80;;;3.78;;
48161;SDS011;33950;48.154;16.316;2022-09-21T07:02:14;6.93;;;4.05;;
48161;SDS011;33950;48.154;16.316;2022-09-21T07:05:00;12.15;;;4.32;;
48161;SDS011;33950;48.154;16.316;2022-09-21T07:07:49;9.00;;;3.30;;
48161;SDS011;33950;48.154;16.316;2022-09-21T07:10:36;5.15;;;3.17;;
48161;SDS011;33950;48.154;16.316;2022-09-21T07:13:22;4.05;;;2.80;;
48161;SDS011;33950;48.154;16.316;2022-09-21T07:16:08;4.68;;;3.35;;
48161;SDS011;33950;48.154;16.316;2022-09-21T07:18:54;7.32;;;3.38;;
48161;SDS011;33950;48.154;16.316;2022-09-21T07:21:40;4.18;;;2.90;;
48161;SDS011;33950;48.154;16.316;2022-09-21T07:24:28;6.55;;;3.03;;
48161;SDS011;33950;48.154;16.316;2022-09-21T07:27:14;4.63;;;2.95;;
48161;SDS011;33950;48.154;16.316;2022-09-21T07:30:00;4.43;;;2.78;;
48161;SDS011;33950;48.154;16.316;2022-09-21T07:32:46;5.15;;;2.95;;
48161;SDS011;33950;48.154;16.316;2022-09-21T07:35:32;5.38;;;2.60;;
48161;SDS011;33950;48.154;16.316;2022-09-21T07:38:19;11.00;;;3.15;;
48161;SDS011;33950;48.154;16.316;2022-09-21T07:41:06;8.27;;;3.22;;
48161;SDS011;33950;48.154;16.316;2022-09-21T07:43:53;8.40;;;2.85;;
48161;SDS011;33950;48.154;16.316;2022-09-21T07:46:39;7.55;;;3.85;;
48161;SDS011;33950;48.154;16.316;2022-09-21T07:49:26;5.35;;;3.22;;
48161;SDS011;33950;48.154;16.316;2022-09-21T07:52:12;6.10;;;3.97;;
48161;SDS011;33950;48.154;16.316;2022-09-21T07:54:59;6.20;;;3.75;;
48161;SDS011;33950;48.154;16.316;2022-09-21T07:57:49;5.95;;;3.92;;
48161;SDS011;33950;48.154;16.316;2022-09-21T08:00:53;7.75;;;4.75;;
48161;SDS011;33950;48.154;16.316;2022-09-21T08:03:40;6.03;;;3.47;;
48161;SDS011;33950;48.154;16.316;2022-09-21T08:06:27;9.98;;;3.70;;
48161;SDS011;33950;48.154;16.316;2022-09-21T08:09:15;5.28;;;3.67;;
48161;SDS011;33950;48.154;16.316;2022-09-21T08:12:01;9.25;;;4.63;;
48161;SDS011;33950;48.154;16.316;2022-09-21T08:14:49;7.30;;;3.85;;
48161;SDS011;33950;48.154;16.316;2022-09-21T08:17:36;8.38;;;4.85;;
48161;SDS011;33950;48.154;16.316;2022-09-21T08:20:23;7.80;;;4.07;;
48161;SDS011;33950;48.154;16.316;2022-09-21T08:23:09;7.50;;;4.07;;
48161;SDS011;33950;48.154;16.316;2022-09-21T08:25:59;5.40;;;3.95;;
48161;SDS011;33950;48.154;16.316;2022-09-21T08:28:47;8.52;;;3.97;;
48161;SDS011;33950;48.154;16.316;2022-09-21T08:31:35;5.88;;;4.05;;
48161;SDS011;33950;48.154;16.316;2022-09-21T08:34:21;6.53;;;4.70;;
48161;SDS011;33950;48.154;16.316;2022-09-21T08:37:08;8.52;;;4.25;;
48161;SDS011;33950;48.154;16.316;2022-09-21T08:39:54;7.18;;;3.72;;
48161;SDS011;33950;48.154;16.316;2022-09-21T08:42:41;8.32;;;3.55;;
48161;SDS011;33950;48.154;16.316;2022-09-21T08:45:37;5.53;;;3.78;;
48161;SDS011;33950;48.154;16.316;2022-09-21T08:51:19;5.20;;;3.47;;
48161;SDS011;33950;48.154;16.316;2022-09-21T08:54:11;5.20;;;3.53;;
48161;SDS011;33950;48.154;16.316;2022-09-21T08:57:00;11.95;;;3.38;;
48161;SDS011;33950;48.154;16.316;2022-09-21T08:59:47;5.80;;;3.42;;
48161;SDS011;33950;48.154;16.316;2022-09-21T09:02:47;4.28;;;3.20;;
48161;SDS011;33950;48.154;16.316;2022-09-21T09:05:56;7.32;;;3.53;;
48161;SDS011;33950;48.154;16.316;2022-09-21T09:08:49;4.93;;;2.85;;
48161;SDS011;33950;48.154;16.316;2022-09-21T09:11:56;6.38;;;3.47;;
48161;SDS011;33950;48.154;16.316;2022-09-21T09:15:03;5.63;;;3.10;;
48161;SDS011;33950;48.154;16.316;2022-09-21T09:18:00;6.25;;;3.10;;
48161;SDS011;33950;48.154;16.316;2022-09-21T09:24:28;5.10;;;2.47;;
48161;SDS011;33950;48.154;16.316;2022-09-21T09:27:18;3.63;;;2.58;;
48161;SDS011;33950;48.154;16.316;2022-09-21T09:30:12;4.60;;;2.70;;
48161;SDS011;33950;48.154;16.316;2022-09-21T09:33:04;4.13;;;2.42;;
48161;SDS011;33950;48.154;16.316;2022-09-21T09:35:57;6.40;;;2.50;;
48161;SDS011;33950;48.154;16.316;2022-09-21T09:38:48;4.57;;;2.95;;
48161;SDS011;33950;48.154;16.316;2022-09-21T09:41:57;6.75;;;2.78;;
48161;SDS011;33950;48.154;16.316;2022-09-21T09:45:08;5.28;;;2.95;;
48161;SDS011;33950;48.154;16.316;2022-09-21T09:48:17;5.55;;;2.85;;
48161;SDS011;33950;48.154;16.316;2022-09-21T09:51:13;3.33;;;2.00;;
48161;SDS011;33950;48.154;16.316;2022-09-21T09:53:59;4.28;;;2.42;;
48161;SDS011;33950;48.154;16.316;2022-09-21T09:56:45;2.58;;;1.83;;
48161;SDS011;33950;48.154;16.316;2022-09-21T09:59:33;3.00;;;1.98;;
48161;SDS011;33950;48.154;16.316;2022-09-21T10:02:22;5.45;;;2.05;;
48161;SDS011;33950;48.154;16.316;2022-09-21T10:05:17;3.08;;;2.03;;
48161;SDS011;33950;48.154;16.316;2022-09-21T10:08:07;3.08;;;1.90;;
48161;SDS011;33950;48.154;16.316;2022-09-21T10:11:13;5.65;;;2.10;;
48161;SDS011;33950;48.154;16.316;2022-09-21T10:14:06;7.97;;;2.58;;
48161;SDS011;33950;48.154;16.316;2022-09-21T10:16:55;9.98;;;2.40;;
48161;SDS011;33950;48.154;16.316;2022-09-21T10:19:45;5.97;;;2.30;;
48161;SDS011;33950;48.154;16.316;2022-09-21T10:22:34;3.95;;;2.17;;
48161;SDS011;33950;48.154;16.316;2022-09-21T10:25:20;2.88;;;2.25;;
48161;SDS011;33950;48.154;16.316;2022-09-21T10:28:08;2.63;;;1.98;;
48161;SDS011;33950;48.154;16.316;2022-09-21T10:31:06;3.97;;;2.00;;
48161;SDS011;33950;48.154;16.316;2022-09-21T10:34:05;3.15;;;1.70;;
48161;SDS011;33950;48.154;16.316;2022-09-21T10:36:57;2.80;;;1.65;;
48161;SDS011;33950;48.154;16.316;2022-09-21T10:39:48;2.30;;;1.15;;
48161;SDS011;33950;48.154;16.316;2022-09-21T10:42:35;2.65;;;1.50;;
48161;SDS011;33950;48.154;16.316;2022-09-21T10:45:26;4.70;;;1.60;;
48161;SDS011;33950;48.154;16.316;2022-09-21T10:48:14;1.35;;;1.10;;
48161;SDS011;33950;48.154;16.316;2022-09-21T10:51:03;3.72;;;1.17;;
48161;SDS011;33950;48.154;16.316;2022-09-21T10:53:50;6.25;;;1.70;;
48161;SDS011;33950;48.154;16.316;2022-09-21T10:56:36;2.22;;;1.70;;
48161;SDS011;33950;48.154;16.316;2022-09-21T10:59:36;4.57;;;1.65;;
48161;SDS011;33950;48.154;16.316;2022-09-21T11:02:23;4.22;;;1.77;;
48161;SDS011;33950;48.154;16.316;2022-09-21T11:05:14;4.20;;;2.60;;
48161;SDS011;33950;48.154;16.316;2022-09-21T11:08:11;3.42;;;1.75;;
48161;SDS011;33950;48.154;16.316;2022-09-21T11:11:05;4.47;;;1.75;;
48161;SDS011;33950;48.154;16.316;2022-09-21T11:14:04;2.85;;;1.63;;
48161;SDS011;33950;48.154;16.316;2022-09-21T11:17:02;4.95;;;2.03;;
48161;SDS011;33950;48.154;16.316;2022-09-21T11:19:59;8.35;;;2.63;;
48161;SDS011;33950;48.154;16.316;2022-09-21T11:22:53;4.18;;;2.00;;
48161;SDS011;33950;48.154;16.316;2022-09-21T11:25:47;3.53;;;1.65;;
48161;SDS011;33950;48.154;16.316;2022-09-21T11:28:44;6.47;;;2.13;;
48161;SDS011;33950;48.154;16.316;2022-09-21T11:31:36;2.92;;;1.33;;
48161;SDS011;33950;48.154;16.316;2022-09-21T11:34:55;6.70;;;1.85;;
48161;SDS011;33950;48.154;16.316;2022-09-21T11:38:03;2.42;;;1.50;;
48161;SDS011;33950;48.154;16.316;2022-09-21T11:41:05;3.03;;;1.92;;
48161;SDS011;33950;48.154;16.316;2022-09-21T11:44:20;5.85;;;1.70;;
48161;SDS011;33950;48.154;16.316;2022-09-21T11:47:23;7.93;;;1.92;;
48161;SDS011;33950;48.154;16.316;2022-09-21T11:50:28;3.50;;;1.17;;
48161;SDS011;33950;48.154;16.316;2022-09-21T11:53:29;3.30;;;1.35;;
48161;SDS011;33950;48.154;16.316;2022-09-21T11:56:35;2.33;;;0.90;;
48161;SDS011;33950;48.154;16.316;2022-09-21T11:59:33;6.00;;;1.23;;
48161;SDS011;33950;48.154;16.316;2022-09-21T12:02:40;3.53;;;1.38;;
48161;SDS011;33950;48.154;16.316;2022-09-21T12:05:57;1.15;;;0.90;;
48161;SDS011;33950;48.154;16.316;2022-09-21T12:09:01;2.35;;;1.33;;
48161;SDS011;33950;48.154;16.316;2022-09-21T12:12:06;4.30;;;1.48;;
48161;SDS011;33950;48.154;16.316;2022-09-21T12:14:57;2.67;;;1.40;;
48161;SDS011;33950;48.154;16.316;2022-09-21T12:17:52;1.98;;;1.45;;
48161;SDS011;33950;48.154;16.316;2022-09-21T12:20:47;1.83;;;1.30;;
48161;SDS011;33950;48.154;16.316;2022-09-21T12:23:42;1.75;;;1.50;;
48161;SDS011;33950;48.154;16.316;2022-09-21T12:26:32;4.72;;;1.27;;
48161;SDS011;33950;48.154;16.316;2022-09-21T12:29:25;1.52;;;1.23;;
48161;SDS011;33950;48.154;16.316;2022-09-21T12:35:05;2.70;;;1.42;;
48161;SDS011;33950;48.154;16.316;2022-09-21T12:38:00;2.55;;;1.50;;
48161;SDS011;33950;48.154;16.316;2022-09-21T12:40:53;2.05;;;1.50;;
48161;SDS011;33950;48.154;16.316;2022-09-21T12:43:46;6.63;;;1.83;;
48161;SDS011;33950;48.154;16.316;2022-09-21T12:49:37;1.67;;;1.40;;
48161;SDS011;33950;48.154;16.316;2022-09-21T12:52:31;1.58;;;1.10;;
48161;SDS011;33950;48.154;16.316;2022-09-21T12:55:22;1.83;;;1.05;;
48161;SDS011;33950;48.154;16.316;2022-09-21T12:58:28;3.15;;;1.52;;
48161;SDS011;33950;48.154;16.316;2022-09-21T13:01:28;1.20;;;1.10;;
48161;SDS011;33950;48.154;16.316;2022-09-21T13:04:30;2.47;;;1.65;;
48161;SDS011;33950;48.154;16.316;2022-09-21T13:10:41;3.95;;;1.17;;
48161;SDS011;33950;48.154;16.316;2022-09-21T13:13:31;3.22;;;1.02;;
48161;SDS011;33950;48.154;16.316;2022-09-21T13:16:23;6.80;;;1.10;;
48161;SDS011;33950;48.154;16.316;2022-09-21T13:19:16;1.33;;;0.97;;
48161;SDS011;33950;48.154;16.316;2022-09-21T13:22:11;1.63;;;1.10;;
48161;SDS011;33950;48.154;16.316;2022-09-21T13:25:06;3.80;;;1.48;;
48161;SDS011;33950;48.154;16.316;2022-09-21T13:28:05;5.28;;;1.42;;
48161;SDS011;33950;48.154;16.316;2022-09-21T13:34:34;4.50;;;1.33;;
48161;SDS011;33950;48.154;16.316;2022-09-21T13:37:25;1.75;;;1.40;;
48161;SDS011;33950;48.154;16.316;2022-09-21T13:46:44;13.38;;;1.60;;
48161;SDS011;33950;48.154;16.316;2022-09-21T13:49:38;3.35;;;1.60;;
48161;SDS011;33950;48.154;16.316;2022-09-21T13:52:32;2.13;;;1.50;;
48161;SDS011;33950;48.154;16.316;2022-09-21T13:55:26;3.35;;;1.50;;
48161;SDS011;33950;48.154;16.316;2022-09-21T13:58:17;3.58;;;1.98;;
48161;SDS011;33950;48.154;16.316;2022-09-21T14:01:06;2.22;;;1.42;;
48161;SDS011;33950;48.154;16.316;2022-09-21T14:03:59;3.88;;;1.50;;
48161;SDS011;33950;48.154;16.316;2022-09-21T14:06:50;5.90;;;1.58;;
48161;SDS011;33950;48.154;16.316;2022-09-21T14:09:40;10.20;;;1.50;;
48161;SDS011;33950;48.154;16.316;2022-09-21T14:12:38;3.63;;;1.38;;
48161;SDS011;33950;48.154;16.316;2022-09-21T14:15:34;6.22;;;1.95;;
48161;SDS011;33950;48.154;16.316;2022-09-21T14:21:31;12.00;;;1.75;;
48161;SDS011;33950;48.154;16.316;2022-09-21T14:24:18;4.25;;;1.55;;
48161;SDS011;33950;48.154;16.316;2022-09-21T14:27:12;4.88;;;1.70;;
48161;SDS011;33950;48.154;16.316;2022-09-21T14:30:01;4.47;;;1.13;;
48161;SDS011;33950;48.154;16.316;2022-09-21T14:32:52;7.30;;;1.60;;
48161;SDS011;33950;48.154;16.316;2022-09-21T14:35:47;2.47;;;1.52;;
48161;SDS011;33950;48.154;16.316;2022-09-21T14:38:39;3.25;;;1.45;;
48161;SDS011;33950;48.154;16.316;2022-09-21T14:41:36;1.40;;;1.30;;
48161;SDS011;33950;48.154;16.316;2022-09-21T14:44:26;2.67;;;1.63;;
48161;SDS011;33950;48.154;16.316;2022-09-21T14:47:17;2.20;;;1.40;;
48161;SDS011;33950;48.154;16.316;2022-09-21T14:50:26;2.80;;;1.45;;
48161;SDS011;33950;48.154;16.316;2022-09-21T14:56:29;5.45;;;1.33;;
48161;SDS011;33950;48.154;16.316;2022-09-21T14:59:31;5.72;;;1.42;;
48161;SDS011;33950;48.154;16.316;2022-09-21T15:02:28;4.72;;;1.60;;
48161;SDS011;33950;48.154;16.316;2022-09-21T15:05:17;4.25;;;1.15;;
48161;SDS011;33950;48.154;16.316;2022-09-21T15:08:10;3.10;;;1.10;;
48161;SDS011;33950;48.154;16.316;2022-09-21T15:11:29;5.63;;;1.33;;
48161;SDS011;33950;48.154;16.316;2022-09-21T15:14:21;2.92;;;1.15;;
48161;SDS011;33950;48.154;16.316;2022-09-21T15:17:22;2.38;;;1.00;;
48161;SDS011;33950;48.154;16.316;2022-09-21T15:20:14;2.65;;;1.60;;
48161;SDS011;33950;48.154;16.316;2022-09-21T15:23:15;1.45;;;1.30;;
48161;SDS011;33950;48.154;16.316;2022-09-21T15:26:04;2.00;;;1.33;;
48161;SDS011;33950;48.154;16.316;2022-09-21T15:28:54;4.70;;;1.42;;
48161;SDS011;33950;48.154;16.316;2022-09-21T15:31:41;2.72;;;1.42;;
48161;SDS011;33950;48.154;16.316;2022-09-21T15:34:29;3.67;;;1.50;;
48161;SDS011;33950;48.154;16.316;2022-09-21T15:37:16;3.95;;;1.38;;
48161;SDS011;33950;48.154;16.316;2022-09-21T15:40:03;2.92;;;1.33;;
48161;SDS011;33950;48.154;16.316;2022-09-21T15:42:59;3.97;;;1.60;;
48161;SDS011;33950;48.154;16.316;2022-09-21T15:45:47;5.50;;;1.58;;
48161;SDS011;33950;48.154;16.316;2022-09-21T15:48:39;6.55;;;1.63;;
48161;SDS011;33950;48.154;16.316;2022-09-21T15:51:28;4.05;;;1.45;;
48161;SDS011;33950;48.154;16.316;2022-09-21T15:54:23;4.38;;;1.10;;
48161;SDS011;33950;48.154;16.316;2022-09-21T15:57:23;12.10;;;2.15;;
48161;SDS011;33950;48.154;16.316;2022-09-21T16:00:17;13.80;;;1.40;;
48161;SDS011;33950;48.154;16.316;2022-09-21T16:03:06;5.00;;;2.08;;
48161;SDS011;33950;48.154;16.316;2022-09-21T16:06:16;3.05;;;1.30;;
48161;SDS011;33950;48.154;16.316;2022-09-21T16:09:31;3.35;;;1.50;;
48161;SDS011;33950;48.154;16.316;2022-09-21T16:12:39;4.30;;;1.73;;
48161;SDS011;33950;48.154;16.316;2022-09-21T16:15:27;2.20;;;1.45;;
48161;SDS011;33950;48.154;16.316;2022-09-21T16:18:27;3.67;;;1.88;;
48161;SDS011;33950;48.154;16.316;2022-09-21T16:21:22;2.03;;;1.45;;
48161;SDS011;33950;48.154;16.316;2022-09-21T16:24:15;5.50;;;1.50;;
48161;SDS011;33950;48.154;16.316;2022-09-21T16:27:04;2.10;;;1.37;;
48161;SDS011;33950;48.154;16.316;2022-09-21T16:29:51;3.50;;;1.05;;
48161;SDS011;33950;48.154;16.316;2022-09-21T16:32:39;2.63;;;1.67;;
48161;SDS011;33950;48.154;16.316;2022-09-21T16:35:26;3.28;;;1.45;;
48161;SDS011;33950;48.154;16.316;2022-09-21T16:38:13;5.80;;;1.30;;
48161;SDS011;33950;48.154;16.316;2022-09-21T16:41:01;2.50;;;1.45;;
48161;SDS011;33950;48.154;16.316;2022-09-21T16:43:48;10.57;;;1.55;;
48161;SDS011;33950;48.154;16.316;2022-09-21T16:46:35;4.68;;;1.52;;
48161;SDS011;33950;48.154;16.316;2022-09-21T16:49:21;2.70;;;1.75;;
48161;SDS011;33950;48.154;16.316;2022-09-21T16:52:11;1.58;;;1.30;;
48161;SDS011;33950;48.154;16.316;2022-09-21T16:55:00;5.30;;;1.55;;
48161;SDS011;33950;48.154;16.316;2022-09-21T16:57:46;5.70;;;1.38;;
48161;SDS011;33950;48.154;16.316;2022-09-21T17:00:35;2.03;;;1.38;;
48161;SDS011;33950;48.154;16.316;2022-09-21T17:03:24;3.80;;;1.40;;
48161;SDS011;33950;48.154;16.316;2022-09-21T17:06:13;3.78;;;1.90;;
48161;SDS011;33950;48.154;16.316;2022-09-21T17:09:01;1.98;;;1.08;;
48161;SDS011;33950;48.154;16.316;2022-09-21T17:12:01;4.72;;;1.70;;
48161;SDS011;33950;48.154;16.316;2022-09-21T17:14:48;4.28;;;1.60;;
48161;SDS011;33950;48.154;16.316;2022-09-21T17:17:37;2.67;;;1.20;;
48161;SDS011;33950;48.154;16.316;2022-09-21T17:20:24;1.35;;;0.90;;
48161;SDS011;33950;48.154;16.316;2022-09-21T17:23:15;3.03;;;1.23;;
48161;SDS011;33950;48.154;16.316;2022-09-21T17:26:01;4.90;;;1.08;;
48161;SDS011;33950;48.154;16.316;2022-09-21T17:28:47;3.42;;;1.10;;
48161;SDS011;33950;48.154;16.316;2022-09-21T17:31:33;3.30;;;1.30;;
48161;SDS011;33950;48.154;16.316;2022-09-21T17:34:22;1.52;;;1.25;;